Portada
METAR-TAF:

METAR-TAF

Aeroports :

Tanabe, Japó

latitud: 33-44N, longitud: 135-23E, altitud: 105 m

Observació

L'informe es va fer fa 42 minuts, a les 09:00 UTC
Vent 4 kt del Sud/Sud-Oest, variant entre Sud/Sud-Est i Oest/Sud-Oest
Temperatura 29°C
Humitat 84%
Pressió 1013 hPa
Visibilitat 10 km o més
Escasses núvols a una alçada de 3000 ft
Núvols disperses

METAR: RJBD 120900Z 20004KT 150V250 9999 FEW030 SCT/// 29/26 Q1013

Hora: 18:42 (09:42 UTC)


TAF: manca

Observacions i pronòstics meteorològics de més de 4000 aeroports (METAR i TAF).

Les estacions disponibles són els punts grocs i vermells al mapa.

Posi el ratolí al punt desitjat per veure el nom de l'estació.

Feu clic per veure les observacions i els pronòstics meteorològics.

Per canviar el mapa: feu clic els botons verds amb una creu de color negre per apropar; al botó verd amb un guió per allunyar la imatge; o en les fletxes verdes per a mapes adjacents.


METAR-TAF: